createdAt,value
2019-03-24T00:00:46.830Z,99.90
2019-03-24T00:03:24.851Z,99.90
2019-03-24T00:05:54.757Z,99.90
2019-03-24T00:08:30.048Z,99.90
2019-03-24T00:10:55.994Z,99.90
2019-03-24T00:13:24.998Z,99.90
2019-03-24T00:15:56.871Z,99.90
2019-03-24T00:18:30.652Z,99.90
2019-03-24T00:20:59.029Z,99.90
2019-03-24T00:23:27.428Z,99.90
2019-03-24T00:26:01.553Z,99.90
2019-03-24T00:28:31.580Z,99.90
2019-03-24T00:30:59.962Z,99.90
2019-03-24T00:33:31.001Z,99.90
2019-03-24T00:35:59.630Z,99.90
2019-03-24T00:38:33.890Z,99.90
2019-03-24T00:41:05.187Z,99.90
2019-03-24T00:43:33.821Z,99.90
2019-03-24T00:46:04.952Z,99.90
2019-03-24T00:48:33.349Z,99.90
2019-03-24T00:51:01.730Z,99.90
2019-03-24T00:53:30.379Z,99.90
2019-03-24T00:56:02.478Z,99.90
2019-03-24T00:58:33.782Z,99.90
2019-03-24T01:01:02.180Z,99.90
2019-03-24T01:03:43.038Z,99.90
2019-03-24T01:06:02.808Z,99.90
2019-03-24T01:08:31.201Z,99.90
2019-03-24T01:11:02.305Z,99.90
2019-03-24T01:13:30.696Z,99.90
2019-03-24T01:16:03.633Z,99.90
2019-03-24T01:18:32.126Z,99.90
2019-03-24T01:21:00.672Z,99.90
2019-03-24T01:23:29.069Z,99.90
2019-03-24T01:25:59.094Z,99.90
2019-03-24T01:28:33.473Z,99.90
2019-03-24T01:31:01.867Z,99.90
2019-03-24T01:33:34.863Z,99.90
2019-03-24T01:36:03.254Z,99.90
2019-03-24T01:38:34.352Z,99.90
2019-03-24T01:41:04.381Z,99.90
2019-03-24T01:43:32.773Z,99.90
2019-03-24T01:46:06.640Z,99.90
2019-03-24T01:48:35.041Z,99.90
2019-03-24T01:51:03.425Z,99.90
2019-03-24T01:53:41.002Z,99.90
2019-03-24T01:56:09.792Z,99.90
2019-03-24T01:58:41.377Z,99.90
2019-03-24T02:01:11.405Z,99.90
2019-03-24T02:03:42.460Z,99.90
2019-03-24T02:06:13.817Z,99.90
2019-03-24T02:08:42.205Z,99.90
2019-03-24T02:11:13.305Z,99.90
2019-03-24T02:13:47.365Z,99.90
2019-03-24T02:16:16.032Z,99.90
2019-03-24T02:18:46.057Z,99.90
2019-03-24T02:21:14.444Z,99.90
2019-03-24T02:23:45.522Z,99.90
2019-03-24T02:26:13.905Z,99.90
2019-03-24T02:28:43.946Z,99.90
2019-03-24T02:31:12.330Z,99.90
2019-03-24T02:33:40.973Z,99.90
2019-03-24T02:36:09.470Z,99.90
2019-03-24T02:38:38.675Z,99.90
2019-03-24T02:41:08.709Z,99.90
2019-03-24T02:43:40.050Z,99.90
2019-03-24T02:46:23.563Z,99.90
2019-03-24T02:48:51.936Z,99.90
2019-03-24T02:51:22.314Z,99.90
2019-03-24T02:53:54.957Z,99.90
2019-03-24T02:56:29.135Z,99.90
2019-03-24T02:58:59.154Z,99.90
2019-03-24T03:01:29.438Z,99.90
2019-03-24T03:04:02.327Z,99.90
2019-03-24T03:06:30.713Z,99.90
2019-03-24T03:08:59.122Z,99.90
2019-03-24T03:11:30.640Z,99.90
2019-03-24T03:13:59.284Z,99.90
2019-03-24T03:16:38.271Z,99.90
2019-03-24T03:19:02.458Z,99.90
2019-03-24T03:21:33.770Z,99.90
2019-03-24T03:24:07.590Z,99.90
2019-03-24T03:26:38.745Z,99.90
2019-03-24T03:29:11.425Z,99.90
2019-03-24T03:31:45.408Z,99.90
2019-03-24T03:34:22.829Z,99.90
2019-03-24T03:36:55.755Z,99.90
2019-03-24T03:39:32.200Z,99.90
2019-03-24T03:42:05.110Z,99.90
2019-03-24T03:44:37.238Z,99.90
2019-03-24T03:47:08.811Z,99.90
2019-03-24T03:49:37.216Z,99.90
2019-03-24T03:52:08.425Z,99.90
2019-03-24T03:54:36.878Z,99.90
2019-03-24T03:57:12.659Z,99.90
2019-03-24T03:59:41.295Z,99.90
2019-03-24T04:02:09.927Z,99.90
2019-03-24T04:04:38.328Z,99.90
2019-03-24T04:07:12.790Z,99.90
2019-03-24T04:09:42.817Z,99.90
2019-03-24T04:12:11.205Z,99.90
2019-03-24T04:14:39.590Z,99.90
2019-03-24T04:17:09.855Z,99.90
2019-03-24T04:19:38.243Z,99.90
2019-03-24T04:22:08.279Z,99.90
2019-03-24T04:24:38.303Z,99.90
2019-03-24T04:27:06.698Z,99.90
2019-03-24T04:29:35.082Z,99.90
2019-03-24T04:32:03.509Z,99.90
2019-03-24T04:34:35.168Z,99.90
2019-03-24T04:37:09.400Z,99.90
2019-03-24T04:39:37.789Z,99.90
2019-03-24T04:42:06.185Z,99.90
2019-03-24T04:44:36.212Z,99.90
2019-03-24T04:47:04.669Z,99.90
2019-03-24T04:49:35.757Z,99.90
2019-03-24T04:52:04.247Z,99.90
2019-03-24T04:54:33.136Z,99.90
2019-03-24T04:57:05.078Z,99.90
2019-03-24T04:59:39.059Z,99.90
2019-03-24T05:02:12.064Z,99.90
2019-03-24T05:04:52.833Z,99.90
2019-03-24T05:07:25.669Z,99.90
2019-03-24T05:09:56.974Z,99.90
2019-03-24T05:12:29.385Z,99.90
2019-03-24T05:15:03.685Z,99.90
2019-03-24T05:17:35.071Z,99.90
2019-03-24T05:20:07.310Z,99.90
2019-03-24T05:22:38.732Z,99.90
2019-03-24T05:25:07.269Z,99.90
2019-03-24T05:27:41.565Z,99.90
2019-03-24T05:30:13.025Z,99.90
2019-03-24T05:32:45.462Z,99.90
2019-03-24T05:35:16.345Z,99.90
2019-03-24T05:37:44.757Z,99.90
2019-03-24T05:40:14.717Z,99.90
2019-03-24T05:42:43.110Z,99.90
2019-03-24T05:45:14.116Z,99.90
2019-03-24T05:47:54.097Z,99.90
2019-03-24T05:50:22.495Z,99.90
2019-03-24T05:52:50.898Z,99.90
2019-03-24T05:55:19.279Z,99.90
2019-03-24T05:57:52.469Z,99.90
2019-03-24T06:00:20.878Z,99.90
2019-03-24T06:02:52.092Z,99.90
2019-03-24T06:05:26.996Z,99.90
2019-03-24T06:07:57.057Z,99.90
2019-03-24T06:10:25.445Z,99.90
2019-03-24T06:12:58.156Z,99.90
2019-03-24T06:15:26.586Z,99.90
2019-03-24T06:17:56.619Z,99.90
2019-03-24T06:20:25.814Z,99.90
2019-03-24T06:22:54.200Z,99.90
2019-03-24T06:25:22.618Z,99.90
2019-03-24T06:27:50.985Z,99.90
2019-03-24T06:30:22.389Z,99.90
2019-03-24T06:32:50.781Z,99.90
2019-03-24T06:35:25.005Z,99.90
2019-03-24T06:37:55.273Z,99.90
2019-03-24T06:40:23.668Z,99.90
2019-03-24T06:42:57.609Z,99.90
2019-03-24T06:45:32.315Z,99.90
2019-03-24T06:48:07.067Z,99.90
2019-03-24T06:50:36.996Z,99.90
2019-03-24T06:53:15.463Z,99.90
2019-03-24T06:55:46.574Z,99.90
2019-03-24T06:58:21.419Z,99.90
2019-03-24T07:00:52.780Z,99.90
2019-03-24T07:03:21.189Z,99.90
2019-03-24T07:05:55.601Z,99.90
2019-03-24T07:08:24.011Z,99.90
2019-03-24T07:10:54.026Z,99.90
2019-03-24T07:13:24.050Z,99.90
2019-03-24T07:15:52.449Z,99.90
2019-03-24T07:18:20.857Z,99.90
2019-03-24T07:20:49.256Z,99.90
2019-03-24T07:23:23.482Z,99.90
2019-03-24T07:25:56.630Z,99.90
2019-03-24T07:28:25.087Z,99.90
2019-03-24T07:30:57.853Z,99.90
2019-03-24T07:33:30.581Z,99.90
2019-03-24T07:35:58.934Z,99.90
2019-03-24T07:38:30.064Z,99.90
2019-03-24T07:40:58.702Z,99.90
2019-03-24T07:43:27.192Z,99.90
2019-03-24T07:45:55.923Z,99.90
2019-03-24T07:48:25.958Z,99.90
2019-03-24T07:50:58.993Z,99.90
2019-03-24T07:53:29.023Z,99.90
2019-03-24T07:56:02.054Z,99.90
2019-03-24T07:58:32.072Z,99.90
2019-03-24T08:01:03.141Z,99.90
2019-03-24T08:03:37.641Z,99.90
2019-03-24T08:06:07.740Z,99.90
2019-03-24T08:08:43.955Z,99.90
2019-03-24T08:11:06.273Z,99.90
2019-03-24T08:13:34.901Z,99.90
2019-03-24T08:16:03.533Z,99.90
2019-03-24T08:18:34.645Z,99.90
2019-03-24T08:21:03.072Z,99.90
2019-03-24T08:23:31.508Z,99.90
2019-03-24T08:25:59.936Z,99.90
2019-03-24T08:28:29.977Z,99.90
2019-03-24T08:30:58.369Z,99.90
2019-03-24T08:33:31.291Z,99.90
2019-03-24T08:35:59.698Z,99.90
2019-03-24T08:38:31.029Z,99.90
2019-03-24T08:40:59.425Z,99.90
2019-03-24T08:43:27.813Z,99.90
2019-03-24T08:45:56.212Z,99.90
2019-03-24T08:48:26.248Z,99.90
2019-03-24T08:50:54.640Z,99.90
2019-03-24T08:53:23.357Z,99.90
2019-03-24T08:55:54.422Z,99.90
2019-03-24T08:58:28.445Z,99.90
2019-03-24T09:00:57.784Z,99.90
2019-03-24T09:03:26.180Z,99.90
2019-03-24T09:05:57.561Z,99.90
2019-03-24T09:08:28.879Z,99.90
2019-03-24T09:10:57.261Z,99.90
2019-03-24T09:13:27.165Z,99.90
2019-03-24T09:15:58.065Z,99.90
2019-03-24T09:18:29.485Z,99.90
2019-03-24T09:20:57.881Z,99.90
2019-03-24T09:23:26.309Z,99.90
2019-03-24T09:25:54.709Z,99.90
2019-03-24T09:28:23.101Z,99.90
2019-03-24T09:30:51.497Z,99.90
2019-03-24T09:33:24.545Z,99.90
2019-03-24T09:35:54.601Z,99.90
2019-03-24T09:38:23.238Z,99.90
2019-03-24T09:40:52.820Z,99.90
2019-03-24T09:43:24.457Z,99.90
2019-03-24T09:45:52.852Z,99.90
2019-03-24T09:48:23.966Z,99.90
2019-03-24T09:50:52.367Z,99.90
2019-03-24T09:53:20.770Z,99.90
2019-03-24T09:55:49.185Z,99.90
2019-03-24T09:58:20.523Z,99.90
2019-03-24T10:00:48.926Z,99.90
2019-03-24T10:03:17.323Z,99.90
2019-03-24T10:05:48.553Z,99.90
2019-03-24T10:08:19.993Z,99.90
2019-03-24T10:10:51.520Z,99.90
2019-03-24T10:13:20.585Z,99.90
2019-03-24T10:15:51.710Z,99.90
2019-03-24T10:18:21.736Z,99.90
2019-03-24T10:20:56.913Z,99.90
2019-03-24T10:23:27.192Z,99.90
2019-03-24T10:26:03.738Z,99.90
2019-03-24T10:28:40.977Z,99.90
2019-03-24T10:31:15.469Z,99.90
2019-03-24T10:33:46.810Z,99.90
2019-03-24T10:36:15.207Z,99.90
2019-03-24T10:38:43.604Z,99.90
2019-03-24T10:41:12.021Z,99.90
2019-03-24T10:43:43.067Z,99.90
2019-03-24T10:46:11.463Z,99.90
2019-03-24T10:48:46.318Z,99.90
2019-03-24T10:51:14.732Z,99.90
2019-03-24T10:53:43.126Z,99.90
2019-03-24T10:56:14.751Z,99.90
2019-03-24T10:58:43.228Z,99.90
2019-03-24T11:01:11.893Z,99.90
2019-03-24T11:03:47.676Z,99.90
2019-03-24T11:06:16.085Z,99.90
2019-03-24T11:08:47.670Z,99.90
2019-03-24T11:11:16.069Z,99.90
2019-03-24T11:13:47.361Z,99.90
2019-03-24T11:16:15.804Z,99.90
2019-03-24T11:18:45.845Z,99.90
2019-03-24T11:21:15.888Z,99.90
2019-03-24T11:23:45.553Z,99.90
2019-03-24T11:26:15.597Z,99.90
2019-03-24T11:28:48.325Z,99.90
2019-03-24T11:31:18.629Z,99.90
2019-03-24T11:33:50.352Z,99.90
2019-03-24T11:36:20.453Z,99.90
2019-03-24T11:38:49.101Z,99.90
2019-03-24T11:41:20.545Z,99.90
2019-03-24T11:43:57.882Z,99.20
2019-03-24T11:46:28.149Z,99.50
2019-03-24T11:48:56.577Z,99.90
2019-03-24T11:51:27.874Z,99.90
2019-03-24T11:54:01.649Z,99.90
2019-03-24T11:56:36.025Z,99.90
2019-03-24T11:59:06.881Z,99.90
2019-03-24T12:01:38.378Z,99.90
2019-03-24T12:04:05.664Z,99.90
2019-03-24T12:06:35.937Z,99.90
2019-03-24T12:09:07.565Z,99.90
2019-03-24T12:11:39.348Z,99.90
2019-03-24T12:14:12.439Z,99.90
2019-03-24T12:16:43.609Z,99.90
2019-03-24T12:19:14.709Z,99.90
2019-03-24T12:21:47.721Z,99.90
2019-03-24T12:24:16.372Z,99.90
2019-03-24T12:26:45.798Z,99.90
2019-03-24T12:29:14.152Z,99.90
2019-03-24T12:31:44.203Z,99.90
2019-03-24T12:34:14.260Z,99.90
2019-03-24T12:36:46.507Z,99.90
2019-03-24T12:39:17.689Z,99.90
2019-03-24T12:41:46.101Z,99.90
2019-03-24T12:44:17.504Z,99.90
2019-03-24T12:46:45.992Z,99.90
2019-03-24T12:49:14.625Z,99.90
2019-03-24T12:51:43.029Z,99.90
2019-03-24T12:54:13.445Z,99.90
2019-03-24T12:56:41.839Z,99.90
2019-03-24T12:59:10.396Z,99.90
2019-03-24T13:01:41.671Z,99.90
2019-03-24T13:04:14.450Z,99.90
2019-03-24T13:06:42.840Z,99.90
2019-03-24T13:09:11.249Z,99.90
2019-03-24T13:11:41.286Z,99.90
2019-03-24T13:14:11.345Z,99.90
2019-03-24T13:16:39.733Z,99.90
2019-03-24T13:19:10.809Z,99.90
2019-03-24T13:21:39.218Z,99.90
2019-03-24T13:24:07.641Z,99.90
2019-03-24T13:26:36.035Z,99.90
2019-03-24T13:29:05.330Z,99.90
2019-03-24T13:31:38.829Z,99.90
2019-03-24T13:34:12.469Z,99.90
2019-03-24T13:36:43.667Z,99.90
2019-03-24T13:39:12.561Z,99.90
2019-03-24T13:41:44.017Z,99.90
2019-03-24T13:44:12.401Z,99.90
2019-03-24T13:46:41.995Z,99.90
2019-03-24T13:49:19.545Z,99.90
2019-03-24T13:51:49.579Z,99.90
2019-03-24T13:54:20.979Z,99.90
2019-03-24T13:56:51.037Z,99.90
2019-03-24T13:59:22.361Z,99.90
2019-03-24T14:01:56.726Z,99.80
2019-03-24T14:04:28.077Z,99.60
2019-03-24T14:07:00.848Z,98.90
2019-03-24T14:09:29.825Z,99.40
2019-03-24T14:11:58.297Z,98.70
2019-03-24T14:14:29.697Z,99.30
2019-03-24T14:16:58.082Z,99.30
2019-03-24T14:19:26.478Z,98.80
2019-03-24T14:21:54.872Z,98.40
2019-03-24T14:24:27.908Z,98.20
2019-03-24T14:26:59.457Z,97.50
2019-03-24T14:29:27.881Z,97.20
2019-03-24T14:31:57.890Z,96.00
2019-03-24T14:34:28.117Z,96.30
2019-03-24T14:36:58.105Z,97.50
2019-03-24T14:39:26.493Z,99.30
2019-03-24T14:41:54.890Z,99.90
2019-03-24T14:44:24.830Z,99.90
2019-03-24T14:46:55.881Z,99.90
2019-03-24T14:49:24.281Z,99.90
2019-03-24T14:51:55.361Z,99.90
2019-03-24T14:54:25.129Z,99.90
2019-03-24T14:56:53.513Z,99.90
2019-03-24T14:59:23.192Z,99.90
2019-03-24T15:01:53.264Z,99.90
2019-03-24T15:04:27.233Z,99.90
2019-03-24T15:06:58.547Z,99.90
2019-03-24T15:09:29.765Z,99.90
2019-03-24T15:12:01.382Z,99.90
2019-03-24T15:14:30.030Z,99.90
2019-03-24T15:17:01.452Z,99.90
2019-03-24T15:19:32.801Z,99.90
2019-03-24T15:22:06.853Z,99.90
2019-03-24T15:24:35.249Z,99.90
2019-03-24T15:27:09.741Z,99.90
2019-03-24T15:29:41.016Z,99.90
2019-03-24T15:32:10.371Z,99.90
2019-03-24T15:34:39.007Z,99.90
2019-03-24T15:37:10.058Z,99.90
2019-03-24T15:39:38.457Z,99.90
2019-03-24T15:42:06.857Z,99.90
2019-03-24T15:44:37.948Z,99.90
2019-03-24T15:47:08.034Z,99.90
2019-03-24T15:49:36.440Z,99.90
2019-03-24T15:52:05.329Z,99.90
2019-03-24T15:54:33.736Z,99.90
2019-03-24T15:57:11.070Z,99.90
2019-03-24T15:59:43.839Z,99.90
2019-03-24T16:02:12.238Z,99.90
2019-03-24T16:04:42.281Z,99.90
2019-03-24T16:07:11.016Z,99.90
2019-03-24T16:09:43.575Z,99.90
2019-03-24T16:12:11.945Z,99.90
2019-03-24T16:14:40.331Z,99.90
2019-03-24T16:17:11.135Z,99.90
2019-03-24T16:19:42.302Z,99.90
2019-03-24T16:22:10.737Z,99.90
2019-03-24T16:24:40.760Z,99.90
2019-03-24T16:27:11.847Z,99.90
2019-03-24T16:29:45.053Z,99.90
2019-03-24T16:32:18.097Z,99.90
2019-03-24T16:34:50.867Z,99.90
2019-03-24T16:37:24.739Z,99.90
2019-03-24T16:39:53.141Z,99.90
2019-03-24T16:42:24.354Z,99.90
2019-03-24T16:44:55.710Z,99.90
2019-03-24T16:47:27.129Z,99.90
2019-03-24T16:49:55.517Z,99.90
2019-03-24T16:52:23.913Z,99.90
2019-03-24T16:54:58.394Z,99.90
2019-03-24T16:57:26.799Z,99.90
2019-03-24T16:59:58.333Z,99.90
2019-03-24T17:02:29.728Z,99.90
2019-03-24T17:04:58.124Z,99.90
2019-03-24T17:07:32.698Z,99.90
2019-03-24T17:10:04.521Z,99.90
2019-03-24T17:12:38.990Z,99.90
2019-03-24T17:15:09.315Z,99.90
2019-03-24T17:17:43.361Z,99.90
2019-03-24T17:20:12.343Z,99.90
2019-03-24T17:22:42.361Z,99.90
2019-03-24T17:25:12.410Z,99.90
2019-03-24T17:27:40.812Z,99.90
2019-03-24T17:30:15.254Z,99.90
2019-03-24T17:32:43.974Z,99.90
2019-03-24T17:35:13.145Z,99.90
2019-03-24T17:37:41.557Z,99.90
2019-03-24T17:40:12.569Z,99.90
2019-03-24T17:42:45.731Z,99.90
2019-03-24T17:45:15.869Z,99.90
2019-03-24T17:47:47.374Z,99.90
2019-03-24T17:50:17.535Z,99.90
2019-03-24T17:52:45.933Z,99.90
2019-03-24T17:55:14.988Z,99.90
2019-03-24T17:57:45.035Z,99.90
2019-03-24T18:00:17.691Z,99.90
2019-03-24T18:02:46.065Z,99.90
2019-03-24T18:05:14.602Z,99.90
2019-03-24T18:07:53.421Z,99.90
2019-03-24T18:10:21.804Z,99.90
2019-03-24T18:12:50.201Z,99.90
2019-03-24T18:15:24.746Z,99.90
2019-03-24T18:17:56.261Z,99.90
2019-03-24T18:20:35.386Z,99.90
2019-03-24T18:23:04.594Z,99.90
2019-03-24T18:25:33.000Z,99.90
2019-03-24T18:28:06.088Z,99.90
2019-03-24T18:30:34.717Z,99.90
2019-03-24T18:33:05.562Z,99.90
2019-03-24T18:35:34.025Z,99.90
2019-03-24T18:38:09.761Z,99.90
2019-03-24T18:40:43.781Z,99.90
2019-03-24T18:43:16.785Z,99.90
2019-03-24T18:45:45.248Z,99.90
2019-03-24T18:48:16.722Z,99.90
2019-03-24T18:50:48.108Z,99.90
2019-03-24T18:53:36.074Z,99.90
2019-03-24T18:56:07.445Z,99.90
2019-03-24T18:58:41.593Z,99.90
2019-03-24T19:01:10.029Z,99.90
2019-03-24T19:03:38.426Z,99.90
2019-03-24T19:06:06.843Z,99.90
2019-03-24T19:08:36.889Z,99.90
2019-03-24T19:11:05.277Z,99.90
2019-03-24T19:13:36.641Z,99.90
2019-03-24T19:16:14.097Z,99.90
2019-03-24T19:18:42.491Z,99.90
2019-03-24T19:21:10.979Z,99.90
2019-03-24T19:23:39.361Z,99.90
2019-03-24T19:26:07.993Z,99.90
2019-03-24T19:28:36.999Z,99.90
2019-03-24T19:31:07.290Z,99.90
2019-03-24T19:33:36.443Z,99.90
2019-03-24T19:36:09.420Z,99.90
2019-03-24T19:38:39.656Z,99.90
2019-03-24T19:41:08.283Z,99.90
2019-03-24T19:43:36.695Z,99.90
2019-03-24T19:46:06.695Z,99.90
2019-03-24T19:48:35.111Z,99.90
2019-03-24T19:51:07.239Z,99.90
2019-03-24T19:53:36.373Z,99.90
2019-03-24T19:56:04.841Z,99.90
2019-03-24T19:58:35.900Z,99.90
2019-03-24T20:01:04.309Z,99.90
2019-03-24T20:03:32.688Z,99.90
2019-03-24T20:06:02.361Z,99.90
2019-03-24T20:08:31.957Z,99.90
2019-03-24T20:11:00.394Z,99.90
2019-03-24T20:13:30.670Z,99.90
2019-03-24T20:16:00.089Z,99.90
2019-03-24T20:18:29.802Z,99.90
2019-03-24T20:20:58.612Z,99.90
2019-03-24T20:23:27.019Z,99.90
2019-03-24T20:25:58.121Z,99.90
2019-03-24T20:28:29.470Z,99.90
2019-03-24T20:30:57.863Z,99.90
2019-03-24T20:33:32.589Z,99.90
2019-03-24T20:36:04.364Z,99.90
2019-03-24T20:38:34.411Z,99.90
2019-03-24T20:41:02.793Z,99.90
2019-03-24T20:43:31.219Z,99.90
2019-03-24T20:45:59.617Z,99.90
2019-03-24T20:48:28.025Z,99.90
2019-03-24T20:50:59.390Z,99.90
2019-03-24T20:53:30.491Z,99.90
2019-03-24T20:55:58.880Z,99.90
2019-03-24T20:58:27.512Z,99.90
2019-03-24T21:00:59.032Z,99.90
2019-03-24T21:03:29.067Z,99.90
2019-03-24T21:06:00.417Z,99.90
2019-03-24T21:08:30.860Z,99.90
2019-03-24T21:10:59.262Z,99.90
2019-03-24T21:13:33.180Z,99.90
2019-03-24T21:16:01.561Z,99.90
2019-03-24T21:18:29.947Z,99.90
2019-03-24T21:20:58.345Z,99.90
2019-03-24T21:23:29.690Z,99.90
2019-03-24T21:26:01.509Z,99.90
2019-03-24T21:28:30.150Z,99.90
2019-03-24T21:30:58.543Z,99.90
2019-03-24T21:33:28.589Z,99.90
2019-03-24T21:35:56.994Z,99.90
2019-03-24T21:38:25.404Z,99.90
2019-03-24T21:40:53.779Z,99.90
2019-03-24T21:43:22.181Z,99.90
2019-03-24T21:45:50.570Z,99.90
2019-03-24T21:48:20.603Z,99.90
2019-03-24T21:50:48.989Z,99.90
2019-03-24T21:53:17.625Z,99.90
2019-03-24T21:55:46.627Z,99.90
2019-03-24T21:58:15.021Z,99.90
2019-03-24T22:00:46.341Z,99.90
2019-03-24T22:03:14.895Z,99.90
2019-03-24T22:05:44.973Z,99.90
2019-03-24T22:08:20.223Z,99.90
2019-03-24T22:10:50.257Z,99.90
2019-03-24T22:13:24.177Z,99.90
2019-03-24T22:15:52.585Z,99.90
2019-03-24T22:18:20.977Z,99.90
2019-03-24T22:20:52.700Z,99.90
2019-03-24T22:23:21.317Z,99.90
2019-03-24T22:25:52.661Z,99.90
2019-03-24T22:28:21.298Z,99.90
2019-03-24T22:30:49.704Z,99.90
2019-03-24T22:33:19.636Z,99.90
2019-03-24T22:35:53.720Z,99.90
2019-03-24T22:38:22.117Z,99.90
2019-03-24T22:40:50.497Z,99.90
2019-03-24T22:43:32.384Z,99.90
2019-03-24T22:46:01.037Z,99.90
2019-03-24T22:48:29.436Z,99.90
2019-03-24T22:50:57.821Z,99.90
2019-03-24T22:53:26.223Z,99.90
2019-03-24T22:55:54.605Z,99.90
2019-03-24T22:58:23.258Z,99.90
2019-03-24T23:00:56.245Z,99.90
2019-03-24T23:03:27.324Z,99.90
2019-03-24T23:05:56.353Z,99.90
2019-03-24T23:08:27.475Z,99.90
2019-03-24T23:10:58.892Z,99.90
2019-03-24T23:13:27.953Z,99.90
2019-03-24T23:15:56.341Z,99.90
2019-03-24T23:18:27.813Z,99.90
2019-03-24T23:20:58.883Z,99.90
2019-03-24T23:23:27.257Z,99.90
2019-03-24T23:26:02.893Z,99.90
2019-03-24T23:28:39.269Z,99.90
2019-03-24T23:31:09.212Z,99.90
2019-03-24T23:33:45.217Z,99.90
2019-03-24T23:36:22.359Z,99.90
2019-03-24T23:38:50.990Z,99.90
2019-03-24T23:41:22.571Z,99.90
2019-03-24T23:43:52.849Z,99.90
2019-03-24T23:46:21.249Z,99.90
2019-03-24T23:48:49.634Z,99.90
2019-03-24T23:51:20.890Z,99.90
2019-03-24T23:53:49.285Z,99.90
2019-03-24T23:56:20.421Z,99.90
2019-03-24T23:58:48.797Z,99.90
